sensor_id;sensor_type;location;lat;lon;timestamp;pressure;altitude;pressure_sealevel;temperature;humidity
6200;BME280;3133;43.214;27.906;2023-06-05T00:00:22;101183.44;;;15.52;100.00
6200;BME280;3133;43.214;27.906;2023-06-05T00:02:49;101177.22;;;15.61;100.00
6200;BME280;3133;43.214;27.906;2023-06-05T00:05:16;101148.38;;;15.53;100.00
6200;BME280;3133;43.214;27.906;2023-06-05T00:07:44;101173.59;;;15.71;100.00
6200;BME280;3133;43.214;27.906;2023-06-05T00:10:10;101176.19;;;15.75;100.00
6200;BME280;3133;43.214;27.906;2023-06-05T00:12:38;101176.22;;;15.72;100.00
6200;BME280;3133;43.214;27.906;2023-06-05T00:15:07;101178.94;;;15.62;100.00
6200;BME280;3133;43.214;27.906;2023-06-05T00:17:34;101171.94;;;15.62;100.00
6200;BME280;3133;43.214;27.906;2023-06-05T00:20:02;101114.41;;;15.27;100.00
6200;BME280;3133;43.214;27.906;2023-06-05T00:22:29;101161.44;;;15.62;100.00
6200;BME280;3133;43.214;27.906;2023-06-05T00:24:57;101157.22;;;15.46;100.00
6200;BME280;3133;43.214;27.906;2023-06-05T00:27:23;101159.88;;;15.43;100.00
6200;BME280;3133;43.214;27.906;2023-06-05T00:29:50;101138.00;;;15.36;100.00
6200;BME280;3133;43.214;27.906;2023-06-05T00:32:18;101165.09;;;15.46;100.00
6200;BME280;3133;43.214;27.906;2023-06-05T00:34:45;101156.28;;;15.49;100.00
6200;BME280;3133;43.214;27.906;2023-06-05T00:37:15;101158.94;;;15.43;100.00
6200;BME280;3133;43.214;27.906;2023-06-05T00:39:42;101128.50;;;15.20;100.00
6200;BME280;3133;43.214;27.906;2023-06-05T00:42:09;101164.25;;;15.38;100.00
6200;BME280;3133;43.214;27.906;2023-06-05T00:44:36;101167.13;;;15.08;100.00
6200;BME280;3133;43.214;27.906;2023-06-05T00:47:04;101154.00;;;15.11;100.00
6200;BME280;3133;43.214;27.906;2023-06-05T00:49:32;101159.13;;;15.24;100.00
6200;BME280;3133;43.214;27.906;2023-06-05T00:52:00;101110.38;;;14.89;100.00
6200;BME280;3133;43.214;27.906;2023-06-05T00:54:26;101132.13;;;15.07;100.00
6200;BME280;3133;43.214;27.906;2023-06-05T00:56:54;101147.28;;;14.69;100.00
6200;BME280;3133;43.214;27.906;2023-06-05T00:59:21;101120.13;;;14.73;100.00
6200;BME280;3133;43.214;27.906;2023-06-05T01:01:48;101147.97;;;14.97;100.00
6200;BME280;3133;43.214;27.906;2023-06-05T01:04:16;101127.84;;;14.99;100.00
6200;BME280;3133;43.214;27.906;2023-06-05T01:06:44;101139.09;;;15.10;100.00
6200;BME280;3133;43.214;27.906;2023-06-05T01:09:11;101126.91;;;15.03;100.00
6200;BME280;3133;43.214;27.906;2023-06-05T01:11:44;101140.03;;;15.04;100.00
6200;BME280;3133;43.214;27.906;2023-06-05T01:14:15;101112.16;;;14.87;100.00
6200;BME280;3133;43.214;27.906;2023-06-05T01:16:48;101116.44;;;14.97;100.00
6200;BME280;3133;43.214;27.906;2023-06-05T01:19:17;101119.06;;;15.00;100.00
6200;BME280;3133;43.214;27.906;2023-06-05T01:21:45;101142.59;;;15.10;100.00
6200;BME280;3133;43.214;27.906;2023-06-05T01:24:13;101136.44;;;15.16;100.00
6200;BME280;3133;43.214;27.906;2023-06-05T01:26:48;101139.91;;;15.19;100.00
6200;BME280;3133;43.214;27.906;2023-06-05T01:29:23;101140.75;;;15.21;100.00
6200;BME280;3133;43.214;27.906;2023-06-05T01:31:55;101117.22;;;15.08;100.00
6200;BME280;3133;43.214;27.906;2023-06-05T01:34:24;101141.59;;;15.25;100.00
6200;BME280;3133;43.214;27.906;2023-06-05T01:36:52;101131.13;;;15.20;100.00
6200;BME280;3133;43.214;27.906;2023-06-05T01:39:23;101139.81;;;15.27;100.00
6200;BME280;3133;43.214;27.906;2023-06-05T01:41:51;101121.56;;;15.13;100.00
6200;BME280;3133;43.214;27.906;2023-06-05T01:44:21;101133.94;;;15.01;100.00
6200;BME280;3133;43.214;27.906;2023-06-05T01:46:49;101119.97;;;14.96;100.00
6200;BME280;3133;43.214;27.906;2023-06-05T01:49:16;101149.63;;;15.11;100.00
6200;BME280;3133;43.214;27.906;2023-06-05T01:51:43;101149.69;;;15.02;100.00
6200;BME280;3133;43.214;27.906;2023-06-05T01:54:10;101148.84;;;14.99;100.00
6200;BME280;3133;43.214;27.906;2023-06-05T01:56:38;101139.25;;;14.92;100.00
6200;BME280;3133;43.214;27.906;2023-06-05T01:59:05;101151.53;;;14.87;100.00
6200;BME280;3133;43.214;27.906;2023-06-05T02:01:34;101145.41;;;14.86;100.00
6200;BME280;3133;43.214;27.906;2023-06-05T02:04:01;101145.50;;;14.77;100.00
6200;BME280;3133;43.214;27.906;2023-06-05T02:06:33;101141.97;;;14.80;100.00
6200;BME280;3133;43.214;27.906;2023-06-05T02:09:07;101142.84;;;14.82;100.00
6200;BME280;3133;43.214;27.906;2023-06-05T02:11:36;101139.34;;;14.78;100.00
6200;BME280;3133;43.214;27.906;2023-06-05T02:14:05;101133.22;;;14.78;100.00
6200;BME280;3133;43.214;27.906;2023-06-05T02:16:32;101135.00;;;14.76;100.00
6200;BME280;3133;43.214;27.906;2023-06-05T02:19:02;101132.41;;;14.70;100.00
6200;BME280;3133;43.214;27.906;2023-06-05T02:21:30;101118.50;;;14.60;100.00
6200;BME280;3133;43.214;27.906;2023-06-05T02:23:58;101132.50;;;14.57;100.00
6200;BME280;3133;43.214;27.906;2023-06-05T02:26:25;101141.16;;;14.70;100.00
6200;BME280;3133;43.214;27.906;2023-06-05T02:28:52;101141.19;;;14.67;100.00
6200;BME280;3133;43.214;27.906;2023-06-05T02:31:22;101143.06;;;14.48;100.00
6200;BME280;3133;43.214;27.906;2023-06-05T02:33:51;101138.69;;;14.46;100.00
6200;BME280;3133;43.214;27.906;2023-06-05T02:36:18;101139.47;;;14.62;100.00
6200;BME280;3133;43.214;27.906;2023-06-05T02:38:45;101121.19;;;14.49;100.00
6200;BME280;3133;43.214;27.906;2023-06-05T02:41:15;101122.94;;;14.47;100.00
6200;BME280;3133;43.214;27.906;2023-06-05T02:43:43;101115.19;;;14.29;100.00
6200;BME280;3133;43.214;27.906;2023-06-05T02:46:10;101160.56;;;14.46;100.00
6200;BME280;3133;43.214;27.906;2023-06-05T02:48:38;101156.16;;;14.53;100.00
6200;BME280;3133;43.214;27.906;2023-06-05T02:51:05;101119.56;;;14.29;100.00
6200;BME280;3133;43.214;27.906;2023-06-05T02:53:35;101159.66;;;14.52;100.00
6200;BME280;3133;43.214;27.906;2023-06-05T02:56:01;101155.41;;;14.30;100.00
6200;BME280;3133;43.214;27.906;2023-06-05T02:58:28;101152.69;;;14.46;100.00
6200;BME280;3133;43.214;27.906;2023-06-05T03:00:57;101150.03;;;14.52;100.00
6200;BME280;3133;43.214;27.906;2023-06-05T03:03:29;101164.00;;;14.59;100.00
6200;BME280;3133;43.214;27.906;2023-06-05T03:05:58;101181.59;;;14.40;100.00
6200;BME280;3133;43.214;27.906;2023-06-05T03:08:30;101129.09;;;14.39;100.00
6200;BME280;3133;43.214;27.906;2023-06-05T03:10:57;101178.78;;;14.74;100.00
6200;BME280;3133;43.214;27.906;2023-06-05T03:13:25;101179.75;;;14.54;100.00
6200;BME280;3133;43.214;27.906;2023-06-05T03:15:51;101181.47;;;14.66;100.00
6200;BME280;3133;43.214;27.906;2023-06-05T03:18:23;101186.00;;;14.38;100.00
6200;BME280;3133;43.214;27.906;2023-06-05T03:20:50;101180.69;;;14.49;100.00
6200;BME280;3133;43.214;27.906;2023-06-05T03:23:21;101177.97;;;14.63;100.00
6200;BME280;3133;43.214;27.906;2023-06-05T03:25:49;101170.00;;;14.76;100.00
6200;BME280;3133;43.214;27.906;2023-06-05T03:28:16;101159.47;;;14.78;100.00
6200;BME280;3133;43.214;27.906;2023-06-05T03:30:43;101182.16;;;14.94;100.00
6200;BME280;3133;43.214;27.906;2023-06-05T03:33:09;101189.94;;;15.04;100.00
6200;BME280;3133;43.214;27.906;2023-06-05T03:35:36;101187.25;;;15.13;100.00
6200;BME280;3133;43.214;27.906;2023-06-05T03:38:05;101188.06;;;15.21;100.00
6200;BME280;3133;43.214;27.906;2023-06-05T03:40:34;101191.59;;;15.14;100.00
6200;BME280;3133;43.214;27.906;2023-06-05T03:43:01;101125.44;;;14.69;100.00
6200;BME280;3133;43.214;27.906;2023-06-05T03:45:28;101189.84;;;15.16;100.00
6200;BME280;3133;43.214;27.906;2023-06-05T03:47:55;101187.19;;;15.22;100.00
6200;BME280;3133;43.214;27.906;2023-06-05T03:50:25;101187.91;;;15.38;100.00
6200;BME280;3133;43.214;27.906;2023-06-05T03:52:54;101186.16;;;15.35;100.00
6200;BME280;3133;43.214;27.906;2023-06-05T03:55:28;101187.22;;;15.16;100.00
6200;BME280;3133;43.214;27.906;2023-06-05T03:58:04;101150.41;;;15.19;100.00
6200;BME280;3133;43.214;27.906;2023-06-05T04:00:31;101178.25;;;15.40;100.00
6200;BME280;3133;43.214;27.906;2023-06-05T04:02:58;101180.00;;;15.46;100.00
6200;BME280;3133;43.214;27.906;2023-06-05T04:05:26;101189.63;;;15.47;100.00
6200;BME280;3133;43.214;27.906;2023-06-05T04:07:52;101157.31;;;15.32;100.00
6200;BME280;3133;43.214;27.906;2023-06-05T04:10:20;101188.72;;;15.52;100.00
6200;BME280;3133;43.214;27.906;2023-06-05T04:12:47;101191.19;;;15.64;100.00
6200;BME280;3133;43.214;27.906;2023-06-05T04:15:15;101194.91;;;15.44;100.00
6200;BME280;3133;43.214;27.906;2023-06-05T04:17:42;101190.34;;;15.65;100.00
6200;BME280;3133;43.214;27.906;2023-06-05T04:20:11;101144.88;;;15.54;100.00
6200;BME280;3133;43.214;27.906;2023-06-05T04:22:39;101191.03;;;15.82;100.00
6200;BME280;3133;43.214;27.906;2023-06-05T04:25:07;101199.56;;;16.02;100.00
6200;BME280;3133;43.214;27.906;2023-06-05T04:27:36;101204.69;;;16.13;100.00
6200;BME280;3133;43.214;27.906;2023-06-05T04:30:04;101176.59;;;16.17;100.00
6200;BME280;3133;43.214;27.906;2023-06-05T04:32:32;101209.47;;;16.54;100.00
6200;BME280;3133;43.214;27.906;2023-06-05T04:35:02;101215.38;;;16.72;100.00
6200;BME280;3133;43.214;27.906;2023-06-05T04:37:29;101206.38;;;16.87;100.00
6200;BME280;3133;43.214;27.906;2023-06-05T04:39:56;101213.84;;;17.17;100.00
6200;BME280;3133;43.214;27.906;2023-06-05T04:42:23;101217.00;;;17.37;100.00
6200;BME280;3133;43.214;27.906;2023-06-05T04:44:55;101199.38;;;17.41;100.00
6200;BME280;3133;43.214;27.906;2023-06-05T04:47:22;101214.81;;;17.63;100.00
6200;BME280;3133;43.214;27.906;2023-06-05T04:49:51;101167.63;;;17.47;100.00
6200;BME280;3133;43.214;27.906;2023-06-05T04:52:19;101162.19;;;17.57;100.00
6200;BME280;3133;43.214;27.906;2023-06-05T04:54:47;101212.25;;;18.06;100.00
6200;BME280;3133;43.214;27.906;2023-06-05T04:57:14;101214.22;;;18.39;100.00
6200;BME280;3133;43.214;27.906;2023-06-05T04:59:42;101236.00;;;20.31;100.00
6200;BME280;3133;43.214;27.906;2023-06-05T05:02:09;101149.72;;;21.33;100.00
6200;BME280;3133;43.214;27.906;2023-06-05T05:04:37;101255.06;;;23.47;100.00
6200;BME280;3133;43.214;27.906;2023-06-05T05:07:05;101141.75;;;23.81;100.00
6200;BME280;3133;43.214;27.906;2023-06-05T05:09:32;101156.63;;;24.62;100.00
6200;BME280;3133;43.214;27.906;2023-06-05T05:11:59;101104.84;;;24.85;100.00
6200;BME280;3133;43.214;27.906;2023-06-05T05:14:26;101262.03;;;26.32;100.00
6200;BME280;3133;43.214;27.906;2023-06-05T05:16:53;101209.25;;;26.51;100.00
6200;BME280;3133;43.214;27.906;2023-06-05T05:19:20;101282.91;;;27.22;100.00
6200;BME280;3133;43.214;27.906;2023-06-05T05:21:48;101274.97;;;27.37;100.00
6200;BME280;3133;43.214;27.906;2023-06-05T05:24:17;101279.94;;;27.74;100.00
6200;BME280;3133;43.214;27.906;2023-06-05T05:26:44;101278.81;;;28.07;100.00
6200;BME280;3133;43.214;27.906;2023-06-05T05:29:11;101286.75;;;28.39;100.00
6200;BME280;3133;43.214;27.906;2023-06-05T05:31:38;101234.38;;;28.32;100.00
6200;BME280;3133;43.214;27.906;2023-06-05T05:34:05;101266.31;;;28.36;100.00
6200;BME280;3133;43.214;27.906;2023-06-05T05:36:32;101297.00;;;28.46;100.00
6200;BME280;3133;43.214;27.906;2023-06-05T05:39:00;101290.91;;;28.72;100.00
6200;BME280;3133;43.214;27.906;2023-06-05T05:41:28;101291.53;;;29.04;99.21
6200;BME280;3133;43.214;27.906;2023-06-05T05:43:55;101173.88;;;28.54;96.45
6200;BME280;3133;43.214;27.906;2023-06-05T05:46:22;101285.47;;;29.15;100.00
6200;BME280;3133;43.214;27.906;2023-06-05T05:48:50;101266.50;;;29.18;98.85
6200;BME280;3133;43.214;27.906;2023-06-05T05:51:17;101245.38;;;28.98;94.64
6200;BME280;3133;43.214;27.906;2023-06-05T05:53:44;101289.81;;;29.31;93.81
6200;BME280;3133;43.214;27.906;2023-06-05T05:56:11;101273.09;;;29.26;95.36
6200;BME280;3133;43.214;27.906;2023-06-05T05:58:39;101223.72;;;29.27;92.66
6200;BME280;3133;43.214;27.906;2023-06-05T06:01:08;101291.00;;;29.81;87.28
6200;BME280;3133;43.214;27.906;2023-06-05T06:03:47;101159.59;;;29.35;84.72
6200;BME280;3133;43.214;27.906;2023-06-05T06:06:25;101264.75;;;29.97;79.54
6200;BME280;3133;43.214;27.906;2023-06-05T06:08:55;101196.81;;;29.41;80.66
6200;BME280;3133;43.214;27.906;2023-06-05T06:11:38;101253.75;;;29.61;80.04
6200;BME280;3133;43.214;27.906;2023-06-05T06:14:08;101233.81;;;28.55;81.82
6200;BME280;3133;43.214;27.906;2023-06-05T06:16:41;101276.69;;;27.98;56.04
6200;BME280;3133;43.214;27.906;2023-06-05T06:19:13;101216.41;;;25.84;66.49
6200;BME280;3133;43.214;27.906;2023-06-05T06:21:59;101275.81;;;25.00;72.78
6200;BME280;3133;43.214;27.906;2023-06-05T06:24:27;101263.56;;;24.19;78.97
6200;BME280;3133;43.214;27.906;2023-06-05T06:26:56;101263.91;;;23.48;87.73
6200;BME280;3133;43.214;27.906;2023-06-05T06:29:29;101258.47;;;23.29;91.71
6200;BME280;3133;43.214;27.906;2023-06-05T06:32:15;101199.19;;;22.58;95.47
6200;BME280;3133;43.214;27.906;2023-06-05T06:34:58;101236.75;;;22.73;95.71
6200;BME280;3133;43.214;27.906;2023-06-05T06:37:39;101265.44;;;22.65;91.21
6200;BME280;3133;43.214;27.906;2023-06-05T06:40:08;101266.56;;;22.81;95.16
6200;BME280;3133;43.214;27.906;2023-06-05T06:42:36;101264.19;;;23.42;95.91
6200;BME280;3133;43.214;27.906;2023-06-05T06:45:06;101269.44;;;23.43;88.33
6200;BME280;3133;43.214;27.906;2023-06-05T06:47:35;101262.00;;;22.62;96.64
6200;BME280;3133;43.214;27.906;2023-06-05T06:50:11;101167.78;;;22.44;95.52
6200;BME280;3133;43.214;27.906;2023-06-05T06:52:40;101240.03;;;22.57;97.98
6200;BME280;3133;43.214;27.906;2023-06-05T06:55:07;101268.66;;;22.73;100.00
6200;BME280;3133;43.214;27.906;2023-06-05T06:57:34;101266.63;;;22.57;100.00
6200;BME280;3133;43.214;27.906;2023-06-05T07:00:02;101125.53;;;21.41;100.00
6200;BME280;3133;43.214;27.906;2023-06-05T07:02:39;101214.84;;;22.19;100.00
6200;BME280;3133;43.214;27.906;2023-06-05T07:05:08;101275.59;;;22.30;100.00
6200;BME280;3133;43.214;27.906;2023-06-05T07:07:51;101253.41;;;22.54;100.00
6200;BME280;3133;43.214;27.906;2023-06-05T07:10:32;101221.59;;;21.78;100.00
6200;BME280;3133;43.214;27.906;2023-06-05T07:13:14;101151.63;;;21.55;100.00
6200;BME280;3133;43.214;27.906;2023-06-05T07:15:42;101285.94;;;22.37;100.00
6200;BME280;3133;43.214;27.906;2023-06-05T07:21:26;101032.97;;;20.29;100.00
6200;BME280;3133;43.214;27.906;2023-06-05T07:23:55;101183.06;;;20.87;100.00
6200;BME280;3133;43.214;27.906;2023-06-05T07:26:22;101205.69;;;21.52;100.00
6200;BME280;3133;43.214;27.906;2023-06-05T07:28:49;101271.63;;;22.41;100.00
6200;BME280;3133;43.214;27.906;2023-06-05T07:31:16;101270.00;;;22.12;100.00
6200;BME280;3133;43.214;27.906;2023-06-05T07:33:43;101253.63;;;22.00;100.00
6200;BME280;3133;43.214;27.906;2023-06-05T07:36:13;101217.25;;;21.76;100.00
6200;BME280;3133;43.214;27.906;2023-06-05T07:38:42;101264.16;;;22.03;100.00
6200;BME280;3133;43.214;27.906;2023-06-05T07:41:10;101246.75;;;21.94;100.00
6200;BME280;3133;43.214;27.906;2023-06-05T07:43:38;101259.78;;;22.50;100.00
6200;BME280;3133;43.214;27.906;2023-06-05T07:46:08;101258.94;;;23.17;100.00
6200;BME280;3133;43.214;27.906;2023-06-05T07:48:49;101228.59;;;23.64;100.00
6200;BME280;3133;43.214;27.906;2023-06-05T07:51:28;101221.09;;;24.14;100.00
6200;BME280;3133;43.214;27.906;2023-06-05T07:54:05;101114.84;;;23.67;100.00
6200;BME280;3133;43.214;27.906;2023-06-05T07:56:33;101200.22;;;23.63;100.00
6200;BME280;3133;43.214;27.906;2023-06-05T07:59:00;101243.00;;;23.81;100.00
6200;BME280;3133;43.214;27.906;2023-06-05T08:01:29;101269.81;;;23.11;100.00
6200;BME280;3133;43.214;27.906;2023-06-05T08:03:56;101253.63;;;22.96;100.00
6200;BME280;3133;43.214;27.906;2023-06-05T08:06:25;101146.06;;;22.79;100.00
6200;BME280;3133;43.214;27.906;2023-06-05T08:08:53;101227.50;;;23.48;100.00
6200;BME280;3133;43.214;27.906;2023-06-05T08:11:23;101211.34;;;23.53;100.00
6200;BME280;3133;43.214;27.906;2023-06-05T08:13:50;101244.19;;;23.09;100.00
6200;BME280;3133;43.214;27.906;2023-06-05T08:16:18;101267.31;;;22.62;100.00
6200;BME280;3133;43.214;27.906;2023-06-05T08:18:45;101264.97;;;22.77;100.00
6200;BME280;3133;43.214;27.906;2023-06-05T08:21:13;101212.50;;;22.35;100.00
6200;BME280;3133;43.214;27.906;2023-06-05T08:23:40;101234.41;;;22.41;100.00
6200;BME280;3133;43.214;27.906;2023-06-05T08:26:07;101260.75;;;22.47;100.00
6200;BME280;3133;43.214;27.906;2023-06-05T08:28:39;101144.53;;;22.28;100.00
6200;BME280;3133;43.214;27.906;2023-06-05T08:31:08;101255.59;;;22.91;100.00
6200;BME280;3133;43.214;27.906;2023-06-05T08:33:37;101232.97;;;22.79;100.00
6200;BME280;3133;43.214;27.906;2023-06-05T08:36:04;101219.31;;;22.42;100.00
6200;BME280;3133;43.214;27.906;2023-06-05T08:38:33;101239.41;;;22.49;100.00
6200;BME280;3133;43.214;27.906;2023-06-05T08:41:02;101283.06;;;22.19;100.00
6200;BME280;3133;43.214;27.906;2023-06-05T08:43:44;101236.94;;;21.70;100.00
6200;BME280;3133;43.214;27.906;2023-06-05T08:46:13;101217.78;;;21.87;100.00
6200;BME280;3133;43.214;27.906;2023-06-05T08:48:43;101182.44;;;21.34;100.00
6200;BME280;3133;43.214;27.906;2023-06-05T08:51:14;101284.69;;;21.72;100.00
6200;BME280;3133;43.214;27.906;2023-06-05T08:53:46;101259.91;;;21.97;100.00
6200;BME280;3133;43.214;27.906;2023-06-05T08:56:14;101192.25;;;21.57;100.00
6200;BME280;3133;43.214;27.906;2023-06-05T08:58:45;101274.22;;;22.43;100.00
6200;BME280;3133;43.214;27.906;2023-06-05T09:01:14;101257.06;;;22.51;100.00
6200;BME280;3133;43.214;27.906;2023-06-05T09:03:41;101248.88;;;22.09;100.00
6200;BME280;3133;43.214;27.906;2023-06-05T09:06:10;101271.22;;;22.27;100.00
6200;BME280;3133;43.214;27.906;2023-06-05T09:08:37;101261.63;;;22.48;100.00
6200;BME280;3133;43.214;27.906;2023-06-05T09:11:24;101267.75;;;22.50;100.00
6200;BME280;3133;43.214;27.906;2023-06-05T09:13:56;101282.03;;;22.72;100.00
6200;BME280;3133;43.214;27.906;2023-06-05T09:16:33;101279.41;;;22.23;100.00
6200;BME280;3133;43.214;27.906;2023-06-05T09:19:00;101258.69;;;21.81;100.00
6200;BME280;3133;43.214;27.906;2023-06-05T09:21:28;101253.09;;;22.15;100.00
6200;BME280;3133;43.214;27.906;2023-06-05T09:24:20;101218.28;;;22.23;100.00
6200;BME280;3133;43.214;27.906;2023-06-05T09:26:54;101266.81;;;22.51;100.00
6200;BME280;3133;43.214;27.906;2023-06-05T09:29:27;101249.25;;;22.71;100.00
6200;BME280;3133;43.214;27.906;2023-06-05T09:31:57;101278.38;;;22.98;100.00
6200;BME280;3133;43.214;27.906;2023-06-05T09:34:27;101274.25;;;23.12;100.00
6200;BME280;3133;43.214;27.906;2023-06-05T09:36:55;101270.53;;;22.71;100.00
6200;BME280;3133;43.214;27.906;2023-06-05T09:39:23;101274.63;;;22.80;100.00
6200;BME280;3133;43.214;27.906;2023-06-05T09:41:52;101268.78;;;22.70;100.00
6200;BME280;3133;43.214;27.906;2023-06-05T09:44:20;101237.19;;;22.61;100.00
6200;BME280;3133;43.214;27.906;2023-06-05T09:46:56;101217.50;;;22.42;100.00
6200;BME280;3133;43.214;27.906;2023-06-05T09:49:26;101290.16;;;22.91;100.00
6200;BME280;3133;43.214;27.906;2023-06-05T09:51:55;101288.72;;;22.82;100.00
6200;BME280;3133;43.214;27.906;2023-06-05T09:54:22;101269.34;;;22.78;100.00
6200;BME280;3133;43.214;27.906;2023-06-05T09:56:57;101288.81;;;22.80;100.00
6200;BME280;3133;43.214;27.906;2023-06-05T09:59:27;101284.22;;;22.84;100.00
6200;BME280;3133;43.214;27.906;2023-06-05T10:01:59;101222.50;;;22.51;100.00
6200;BME280;3133;43.214;27.906;2023-06-05T10:04:28;101241.09;;;22.76;100.00
6200;BME280;3133;43.214;27.906;2023-06-05T10:07:00;101222.03;;;22.86;100.00
6200;BME280;3133;43.214;27.906;2023-06-05T10:09:29;101276.94;;;23.11;100.00
6200;BME280;3133;43.214;27.906;2023-06-05T10:11:57;101271.63;;;23.11;100.00
6200;BME280;3133;43.214;27.906;2023-06-05T10:14:26;101244.69;;;22.97;100.00
6200;BME280;3133;43.214;27.906;2023-06-05T10:20:23;101269.53;;;22.97;100.00
6200;BME280;3133;43.214;27.906;2023-06-05T10:22:56;101102.69;;;21.37;100.00
6200;BME280;3133;43.214;27.906;2023-06-05T10:25:37;101278.06;;;21.85;100.00
6200;BME280;3133;43.214;27.906;2023-06-05T10:28:27;101168.72;;;21.46;100.00
6200;BME280;3133;43.214;27.906;2023-06-05T10:31:18;101219.03;;;22.01;100.00
6200;BME280;3133;43.214;27.906;2023-06-05T10:34:18;101275.97;;;22.44;100.00
6200;BME280;3133;43.214;27.906;2023-06-05T10:40:24;101227.75;;;21.54;100.00
6200;BME280;3133;43.214;27.906;2023-06-05T10:42:57;101300.72;;;21.69;100.00
6200;BME280;3133;43.214;27.906;2023-06-05T10:45:44;101232.09;;;21.03;100.00
6200;BME280;3133;43.214;27.906;2023-06-05T10:49:07;101270.72;;;21.39;100.00
6200;BME280;3133;43.214;27.906;2023-06-05T10:51:45;101290.94;;;21.69;100.00
6200;BME280;3133;43.214;27.906;2023-06-05T10:54:15;101288.75;;;21.83;100.00
6200;BME280;3133;43.214;27.906;2023-06-05T10:57:06;101288.25;;;21.97;100.00
6200;BME280;3133;43.214;27.906;2023-06-05T10:59:36;101282.41;;;21.87;100.00
6200;BME280;3133;43.214;27.906;2023-06-05T11:02:22;101284.22;;;21.59;100.00
6200;BME280;3133;43.214;27.906;2023-06-05T11:05:13;101225.03;;;21.29;100.00
6200;BME280;3133;43.214;27.906;2023-06-05T11:07:42;101270.66;;;21.68;100.00
6200;BME280;3133;43.214;27.906;2023-06-05T11:10:15;101139.31;;;20.74;100.00
6200;BME280;3133;43.214;27.906;2023-06-05T11:13:14;101157.47;;;20.86;100.00
6200;BME280;3133;43.214;27.906;2023-06-05T11:15:43;101257.06;;;21.77;100.00
6200;BME280;3133;43.214;27.906;2023-06-05T11:18:38;101268.41;;;21.82;100.00
6200;BME280;3133;43.214;27.906;2023-06-05T11:21:06;101160.56;;;20.72;100.00
6200;BME280;3133;43.214;27.906;2023-06-05T11:23:33;101206.69;;;21.22;100.00
6200;BME280;3133;43.214;27.906;2023-06-05T11:29:14;101272.88;;;21.54;100.00
6200;BME280;3133;43.214;27.906;2023-06-05T11:31:43;101269.22;;;21.30;100.00
6200;BME280;3133;43.214;27.906;2023-06-05T11:34:14;101263.50;;;21.16;100.00
6200;BME280;3133;43.214;27.906;2023-06-05T11:36:42;101210.50;;;20.86;100.00
6200;BME280;3133;43.214;27.906;2023-06-05T11:39:12;101237.94;;;20.85;100.00
6200;BME280;3133;43.214;27.906;2023-06-05T11:41:46;101142.75;;;20.17;100.00
6200;BME280;3133;43.214;27.906;2023-06-05T11:44:30;101265.97;;;20.93;100.00
6200;BME280;3133;43.214;27.906;2023-06-05T11:46:57;101260.94;;;21.13;100.00
6200;BME280;3133;43.214;27.906;2023-06-05T11:49:28;101191.59;;;20.96;100.00
6200;BME280;3133;43.214;27.906;2023-06-05T11:52:05;101159.34;;;20.82;100.00
6200;BME280;3133;43.214;27.906;2023-06-05T11:54:50;101164.19;;;20.70;100.00
6200;BME280;3133;43.214;27.906;2023-06-05T11:57:41;101260.91;;;21.41;100.00
6200;BME280;3133;43.214;27.906;2023-06-05T12:03:18;101190.28;;;20.54;100.00
6200;BME280;3133;43.214;27.906;2023-06-05T12:05:47;101109.00;;;20.25;100.00
6200;BME280;3133;43.214;27.906;2023-06-05T12:08:21;101234.03;;;20.96;100.00
6200;BME280;3133;43.214;27.906;2023-06-05T12:10:48;101205.66;;;20.71;100.00
6200;BME280;3133;43.214;27.906;2023-06-05T12:13:15;101203.41;;;20.86;100.00
6200;BME280;3133;43.214;27.906;2023-06-05T12:15:42;101270.78;;;21.37;100.00
6200;BME280;3133;43.214;27.906;2023-06-05T12:18:09;101277.28;;;21.55;100.00
6200;BME280;3133;43.214;27.906;2023-06-05T12:20:39;101217.25;;;21.51;100.00
6200;BME280;3133;43.214;27.906;2023-06-05T12:23:06;101236.72;;;21.76;100.00
6200;BME280;3133;43.214;27.906;2023-06-05T12:25:33;101163.19;;;21.27;100.00
6200;BME280;3133;43.214;27.906;2023-06-05T12:28:17;101267.06;;;21.69;100.00
6200;BME280;3133;43.214;27.906;2023-06-05T12:30:57;101076.25;;;20.55;100.00
6200;BME280;3133;43.214;27.906;2023-06-05T12:33:25;101142.63;;;21.08;100.00
6200;BME280;3133;43.214;27.906;2023-06-05T12:36:31;101201.41;;;21.48;100.00
6200;BME280;3133;43.214;27.906;2023-06-05T12:39:04;101095.31;;;20.67;100.00
6200;BME280;3133;43.214;27.906;2023-06-05T12:41:34;101202.63;;;21.12;100.00
6200;BME280;3133;43.214;27.906;2023-06-05T12:44:04;101279.34;;;21.46;100.00
6200;BME280;3133;43.214;27.906;2023-06-05T12:46:35;101265.56;;;21.61;100.00
6200;BME280;3133;43.214;27.906;2023-06-05T12:49:47;101071.03;;;19.96;100.00
6200;BME280;3133;43.214;27.906;2023-06-05T12:52:49;101145.31;;;20.51;100.00
6200;BME280;3133;43.214;27.906;2023-06-05T12:55:26;101274.72;;;21.26;100.00
6200;BME280;3133;43.214;27.906;2023-06-05T12:58:12;101269.81;;;21.40;100.00
6200;BME280;3133;43.214;27.906;2023-06-05T13:00:54;101231.81;;;20.83;100.00
6200;BME280;3133;43.214;27.906;2023-06-05T13:03:43;101089.78;;;20.17;100.00
6200;BME280;3133;43.214;27.906;2023-06-05T13:06:37;101269.50;;;20.94;100.00
6200;BME280;3133;43.214;27.906;2023-06-05T13:09:20;101259.88;;;21.19;100.00
6200;BME280;3133;43.214;27.906;2023-06-05T13:11:54;101209.94;;;20.76;100.00
6200;BME280;3133;43.214;27.906;2023-06-05T13:14:38;101056.16;;;19.61;100.00
6200;BME280;3133;43.214;27.906;2023-06-05T13:17:19;101214.28;;;20.17;100.00
6200;BME280;3133;43.214;27.906;2023-06-05T13:20:00;100989.84;;;19.04;100.00
6200;BME280;3133;43.214;27.906;2023-06-05T13:22:54;101165.44;;;19.97;100.00
6200;BME280;3133;43.214;27.906;2023-06-05T13:35:44;101211.91;;;20.68;100.00
6200;BME280;3133;43.214;27.906;2023-06-05T13:38:23;101242.13;;;20.92;100.00